Time;durP1;ratioP1;P1;durP2;ratioP2;P2;SDS_P1;SDS_P2;PMS_P1;PMS_P2;Temp;Humidity;BMP_temperature;BMP_pressure;BME280_temperature;BME280_humidity;BME280_pressure;Samples;Min_cycle;Max_cycle;Signal;HPM_P1;HPM_P2
2022/10/21 00:00:54;;;;;;;65.55;25.05;;;;;;;13.82;100.00;100707.28;5011339;28;20025;-42
2022/10/21 00:03:20;;;;;;;59.75;23.50;;;;;;;13.77;100.00;100698.97;5011030;28;20052;-41
2022/10/21 00:05:46;;;;;;;59.72;25.15;;;;;;;13.76;100.00;100696.44;5011129;28;20083;-41
2022/10/21 00:08:11;;;;;;;63.60;24.00;;;;;;;13.72;100.00;100698.75;5009321;28;20030;-41
2022/10/21 00:10:36;;;;;;;69.60;26.42;;;;;;;13.71;100.00;100698.94;5010938;28;20115;-42
2022/10/21 00:13:02;;;;;;;70.35;25.83;;;;;;;13.70;100.00;100698.09;5011494;28;20030;-42
2022/10/21 00:15:27;;;;;;;57.55;24.23;;;;;;;13.69;100.00;100687.47;5010986;28;20036;-41
2022/10/21 00:17:52;;;;;;;63.38;25.00;;;;;;;13.65;100.00;100689.78;5010870;28;20163;-42
2022/10/21 00:20:18;;;;;;;59.45;23.50;;;;;;;13.65;100.00;100695.19;5010625;28;20018;-42
2022/10/21 00:22:43;;;;;;;62.45;25.50;;;;;;;13.68;100.00;100694.78;5009861;28;20029;-41
2022/10/21 00:25:09;;;;;;;63.33;24.75;;;;;;;13.70;100.00;100697.28;5011023;28;20034;-42
2022/10/21 00:27:34;;;;;;;72.55;24.23;;;;;;;13.70;100.00;100687.28;5010641;28;20430;-42
2022/10/21 00:29:59;;;;;;;62.90;24.80;;;;;;;13.69;100.00;100685.63;5010721;28;20374;-42
2022/10/21 00:32:25;;;;;;;84.65;26.52;;;;;;;13.70;100.00;100676.47;5010916;28;20492;-41
2022/10/21 00:34:50;;;;;;;68.03;25.17;;;;;;;13.66;100.00;100686.03;5010525;28;20306;-40
2022/10/21 00:37:16;;;;;;;68.63;24.77;;;;;;;13.65;100.00;100678.97;5010949;28;20512;-42
2022/10/21 00:39:41;;;;;;;75.10;26.92;;;;;;;13.65;100.00;100678.97;5010515;28;20029;-41
2022/10/21 00:42:13;;;;;;;67.55;25.38;;;;;;;13.60;100.00;100670.63;5011024;28;20036;-41
2022/10/21 00:44:39;;;;;;;72.65;24.75;;;;;;;13.53;100.00;100672.47;5010488;28;20026;-41
2022/10/21 00:47:06;;;;;;;66.20;23.95;;;;;;;13.45;100.00;100678.09;5010449;28;20033;-42
2022/10/21 00:49:53;;;;;;;66.68;25.25;;;;;;;13.41;100.00;100668.75;5010553;28;20071;-42
2022/10/21 00:52:21;;;;;;;71.05;23.50;;;;;;;13.39;100.00;100664.34;5010478;28;20029;-42
2022/10/21 00:54:48;;;;;;;55.10;24.23;;;;;;;13.36;100.00;100658.53;5008982;28;20041;-42
2022/10/21 00:57:13;;;;;;;65.05;25.23;;;;;;;13.31;100.00;100663.72;5009654;28;20058;-41
2022/10/21 00:59:41;;;;;;;61.00;24.35;;;;;;;13.29;100.00;100658.50;5010607;28;20054;-42
2022/10/21 01:02:07;;;;;;;71.32;24.85;;;;;;;13.29;100.00;100657.69;5009230;28;20485;-41
2022/10/21 01:04:33;;;;;;;57.63;22.58;;;;;;;13.21;100.00;100650.56;5010323;28;20120;-42
2022/10/21 01:06:59;;;;;;;54.78;22.27;;;;;;;13.14;100.00;100644.31;5009328;28;20080;-42
2022/10/21 01:09:24;;;;;;;63.53;24.20;;;;;;;13.08;100.00;100650.50;5008862;28;20054;-41
2022/10/21 01:11:50;;;;;;;69.78;21.95;;;;;;;13.04;100.00;100649.28;5009243;28;20026;-42
2022/10/21 01:14:44;;;;;;;62.17;22.42;;;;;;;13.01;100.00;100646.97;5008984;28;20045;-43
2022/10/21 01:17:29;;;;;;;62.72;22.65;;;;;;;12.94;100.00;100650.47;4993173;28;20029;-42
2022/10/21 01:20:09;;;;;;;66.18;24.20;;;;;;;12.90;100.00;100642.97;4992456;28;20026;-41
2022/10/21 01:22:49;;;;;;;58.88;24.50;;;;;;;12.85;100.00;100635.50;5010405;28;20029;-42
2022/10/21 01:25:28;;;;;;;77.22;26.20;;;;;;;12.83;100.00;100625.94;5010022;28;20117;-42
2022/10/21 01:28:20;;;;;;;67.10;24.30;;;;;;;12.83;100.00;100629.47;5009206;28;20124;-42
2022/10/21 01:30:51;;;;;;;70.05;24.88;;;;;;;12.81;100.00;100620.72;4990304;28;20046;-42
2022/10/21 01:33:22;;;;;;;62.30;25.08;;;;;;;12.81;100.00;100617.19;4990712;28;20038;-41
2022/10/21 01:36:12;;;;;;;62.72;24.70;;;;;;;12.81;100.00;100607.22;4990432;28;20033;-40
2022/10/21 01:38:42;;;;;;;79.00;26.83;;;;;;;12.80;100.00;100610.97;5008068;28;20029;-41
2022/10/21 01:41:30;;;;;;;75.00;27.05;;;;;;;12.82;100.00;100602.63;5010188;28;20053;-41
2022/10/21 01:44:01;;;;;;;67.28;26.17;;;;;;;12.79;100.00;100609.28;5008787;28;20022;-42
2022/10/21 01:46:27;;;;;;;69.30;26.60;;;;;;;12.80;100.00;100610.13;5010063;28;20114;-42
2022/10/21 01:48:57;;;;;;;99.05;28.08;;;;;;;12.93;100.00;100619.09;5008601;28;20030;-42
2022/10/21 01:51:24;;;;;;;80.13;27.35;;;;;;;13.00;100.00;100615.59;5008524;28;20036;-42
2022/10/21 01:53:54;;;;;;;77.30;26.58;;;;;;;12.99;100.00;100609.34;5008575;28;20096;-41
2022/10/21 01:56:20;;;;;;;82.45;28.77;;;;;;;12.99;100.00;100606.66;5009920;28;21506;-42
2022/10/21 01:58:47;;;;;;;70.55;25.63;;;;;;;13.00;100.00;100610.19;5008194;28;20131;-42
2022/10/21 02:01:13;;;;;;;73.00;27.35;;;;;;;12.94;100.00;100607.25;5008729;28;20084;-42
2022/10/21 02:03:41;;;;;;;81.30;27.13;;;;;;;12.93;100.00;100599.38;5008991;28;20026;-42
2022/10/21 02:06:06;;;;;;;78.57;28.27;;;;;;;12.95;100.00;100595.44;5009018;28;20030;-42
2022/10/21 02:08:32;;;;;;;86.72;27.27;;;;;;;12.91;100.00;100596.88;5012216;28;20048;-42
2022/10/21 02:11:00;;;;;;;73.45;27.52;;;;;;;12.86;100.00;100593.94;5013616;28;20034;-42
2022/10/21 02:13:29;;;;;;;71.38;27.02;;;;;;;12.87;100.00;100601.00;5007250;28;20054;-42
2022/10/21 02:15:57;;;;;;;70.20;26.67;;;;;;;12.86;100.00;100588.53;5013505;28;20091;-41
2022/10/21 02:18:24;;;;;;;67.38;26.98;;;;;;;12.80;100.00;100583.94;5012104;28;20113;-43
2022/10/21 02:20:53;;;;;;;61.58;25.23;;;;;;;12.77;100.00;100578.97;5012588;28;20105;-42
2022/10/21 02:23:22;;;;;;;78.57;27.15;;;;;;;12.79;100.00;100579.56;5012942;28;20026;-42
2022/10/21 02:25:49;;;;;;;87.03;31.50;;;;;;;12.82;100.00;100579.19;5012999;28;20488;-42
2022/10/21 02:28:14;;;;;;;78.60;28.07;;;;;;;12.77;100.00;100575.41;5012628;28;20030;-41
2022/10/21 02:31:07;;;;;;;77.35;27.00;;;;;;;12.67;100.00;100575.81;5012257;28;20026;-43
2022/10/21 02:34:03;;;;;;;75.85;27.25;;;;;;;12.68;100.00;100572.88;5000466;28;20040;-41
2022/10/21 02:37:03;;;;;;;69.63;26.42;;;;;;;12.62;100.00;100576.41;5011789;28;20354;-41
2022/10/21 02:39:34;;;;;;;66.75;25.73;;;;;;;12.52;100.00;100571.38;4993099;28;20346;-40
2022/10/21 02:42:01;;;;;;;67.88;26.15;;;;;;;12.43;100.00;100567.19;5008417;28;20065;-42
2022/10/21 02:44:27;;;;;;;71.03;24.30;;;;;;;12.38;100.00;100558.03;5011146;28;20461;-42
2022/10/21 02:46:52;;;;;;;62.20;25.88;;;;;;;12.36;100.00;100555.53;5012406;28;20058;-42
2022/10/21 02:49:17;;;;;;;64.90;25.65;;;;;;;12.35;100.00;100561.97;5012597;28;20551;-40
2022/10/21 02:51:43;;;;;;;73.65;27.63;;;;;;;12.32;100.00;100562.34;5012551;28;20034;-40
2022/10/21 02:54:09;;;;;;;80.05;26.95;;;;;;;12.28;100.00;100564.63;5010973;28;20119;-43
2022/10/21 02:56:34;;;;;;;71.40;25.33;;;;;;;12.24;100.00;100565.22;5012622;28;20106;-41
2022/10/21 02:58:59;;;;;;;71.10;27.00;;;;;;;12.21;100.00;100569.16;5012795;28;20056;-40
2022/10/21 03:01:25;;;;;;;62.38;25.38;;;;;;;12.22;100.00;100560.03;5012836;28;20026;-41
2022/10/21 03:03:50;;;;;;;67.60;25.40;;;;;;;12.19;100.00;100555.03;5011982;28;20478;-42
2022/10/21 03:06:15;;;;;;;67.05;26.63;;;;;;;12.18;100.00;100549.84;5012525;28;20171;-42
2022/10/21 03:08:41;;;;;;;65.78;24.13;;;;;;;12.19;100.00;100552.34;5011688;28;20054;-41
2022/10/21 03:11:06;;;;;;;66.45;24.25;;;;;;;12.21;100.00;100555.66;5012276;28;20045;-41
2022/10/21 03:13:31;;;;;;;66.70;25.17;;;;;;;12.20;100.00;100561.28;5011805;28;20038;-41
2022/10/21 03:15:57;;;;;;;75.22;26.10;;;;;;;12.21;100.00;100569.16;5012374;28;20073;-40
2022/10/21 03:18:22;;;;;;;80.20;28.30;;;;;;;12.31;100.00;100563.41;5011369;28;20038;-41
2022/10/21 03:20:49;;;;;;;80.00;28.08;;;;;;;12.34;100.00;100556.75;5011548;28;20037;-41
2022/10/21 03:23:15;;;;;;;67.13;25.60;;;;;;;12.27;100.00;100551.34;5011796;28;20109;-42
2022/10/21 03:25:41;;;;;;;65.53;25.83;;;;;;;12.22;100.00;100549.25;5012100;28;20030;-41
2022/10/21 03:28:06;;;;;;;67.75;26.20;;;;;;;12.21;100.00;100546.72;5011845;28;20068;-42
2022/10/21 03:30:31;;;;;;;66.72;25.38;;;;;;;12.25;100.00;100543.44;5011659;28;20061;-42
2022/10/21 03:32:57;;;;;;;70.43;25.73;;;;;;;12.25;100.00;100538.06;5011558;28;20471;-42
2022/10/21 03:35:22;;;;;;;62.40;24.13;;;;;;;12.22;100.00;100537.63;5012072;28;20114;-42
2022/10/21 03:37:47;;;;;;;58.35;23.63;;;;;;;12.20;100.00;100537.00;5011558;28;20133;-40
2022/10/21 03:40:13;;;;;;;62.15;24.52;;;;;;;12.23;100.00;100526.63;5011947;28;20057;-41
2022/10/21 03:42:38;;;;;;;60.40;23.88;;;;;;;12.19;100.00;100521.81;5010381;28;20022;-41
2022/10/21 03:45:04;;;;;;;55.60;23.02;;;;;;;12.15;100.00;100521.38;5009595;28;20068;-42
2022/10/21 03:47:29;;;;;;;69.13;25.10;;;;;;;12.05;100.00;100516.34;5011850;28;20030;-42
2022/10/21 03:49:54;;;;;;;74.25;23.67;;;;;;;12.01;100.00;100525.91;5011458;28;20030;-42
2022/10/21 03:52:20;;;;;;;67.93;24.48;;;;;;;11.97;100.00;100521.09;5011826;28;20030;-41
2022/10/21 03:54:45;;;;;;;65.97;25.00;;;;;;;11.94;100.00;100513.41;5011224;28;20033;-41
2022/10/21 03:57:10;;;;;;;56.60;24.67;;;;;;;11.95;100.00;100518.56;5010623;28;20026;-41
2022/10/21 03:59:35;;;;;;;67.38;24.25;;;;;;;11.93;100.00;100515.28;5031408;28;20095;-41
2022/10/21 04:02:01;;;;;;;67.85;24.92;;;;;;;11.90;100.00;100512.97;5010175;28;20500;-41
2022/10/21 04:04:26;;;;;;;71.78;26.02;;;;;;;11.95;100.00;100515.06;5010081;28;20115;-41
2022/10/21 04:06:51;;;;;;;74.65;26.73;;;;;;;12.04;100.00;100522.78;5011935;28;20428;-43
2022/10/21 04:09:17;;;;;;;88.70;28.80;;;;;;;12.16;100.00;100511.44;5011166;28;20388;-43
2022/10/21 04:11:42;;;;;;;73.63;26.73;;;;;;;12.23;100.00;100531.19;5010828;28;20044;-41
2022/10/21 04:14:07;;;;;;;72.03;26.80;;;;;;;12.16;100.00;100536.53;5011296;28;20029;-42
2022/10/21 04:16:33;;;;;;;76.72;26.50;;;;;;;12.13;100.00;100530.72;5010787;28;20134;-42
2022/10/21 04:18:59;;;;;;;73.35;25.58;;;;;;;12.11;100.00;100540.88;5010908;28;20095;-41
2022/10/21 04:21:24;;;;;;;75.25;24.60;;;;;;;12.06;100.00;100539.63;5010640;28;20022;-41
2022/10/21 04:23:49;;;;;;;74.38;26.33;;;;;;;12.05;100.00;100535.22;5011012;28;20045;-42
2022/10/21 04:26:15;;;;;;;71.43;24.02;;;;;;;12.08;100.00;100534.88;5011321;28;20021;-42
2022/10/21 04:28:40;;;;;;;69.95;25.50;;;;;;;12.13;100.00;100545.03;5010864;28;20026;-42
2022/10/21 04:31:05;;;;;;;71.80;25.90;;;;;;;12.13;100.00;100538.81;5010825;28;20065;-41
2022/10/21 04:33:31;;;;;;;79.93;25.58;;;;;;;12.13;100.00;100538.81;5010315;28;20555;-41
2022/10/21 04:35:57;;;;;;;67.40;24.90;;;;;;;12.10;100.00;100539.22;5010917;28;20512;-42
2022/10/21 04:38:23;;;;;;;72.22;25.35;;;;;;;12.03;100.00;100550.81;5010803;28;20037;-42
2022/10/21 04:41:00;;;;;;;72.10;24.80;;;;;;;11.96;100.00;100544.53;5011034;28;20026;-42
2022/10/21 04:43:25;;;;;;;69.35;24.20;;;;;;;11.92;100.00;100545.94;5006847;28;20029;-42
2022/10/21 04:45:51;;;;;;;68.07;24.67;;;;;;;11.86;100.00;100544.88;5010893;28;20037;-42
2022/10/21 04:48:17;;;;;;;73.38;26.65;;;;;;;11.84;100.00;100540.69;5009997;28;20068;-42
2022/10/21 04:50:42;;;;;;;70.28;25.88;;;;;;;11.84;100.00;100535.28;5009157;28;20378;-42
2022/10/21 04:53:07;;;;;;;71.85;26.38;;;;;;;11.82;100.00;100545.44;5010105;28;20041;-42
2022/10/21 04:55:33;;;;;;;74.45;25.38;;;;;;;11.80;100.00;100536.72;5011224;28;20021;-40
2022/10/21 04:57:58;;;;;;;72.65;25.35;;;;;;;11.79;100.00;100532.34;5009619;28;20045;-41
2022/10/21 05:00:23;;;;;;;74.05;24.83;;;;;;;11.81;100.00;100536.50;5010582;28;20022;-42
2022/10/21 05:02:49;;;;;;;73.05;24.83;;;;;;;11.82;100.00;100540.03;5010633;28;20030;-41
2022/10/21 05:05:14;;;;;;;69.65;23.65;;;;;;;11.83;100.00;100539.03;5010784;28;20032;-41
2022/10/21 05:07:40;;;;;;;65.32;24.42;;;;;;;11.81;100.00;100544.59;5010392;28;20022;-39
2022/10/21 05:10:05;;;;;;;66.60;24.20;;;;;;;11.80;100.00;100545.66;5009500;28;20042;-41
2022/10/21 05:12:31;;;;;;;65.25;23.50;;;;;;;11.81;100.00;100547.31;5010110;28;20515;-42
2022/10/21 05:14:56;;;;;;;67.13;23.00;;;;;;;11.85;100.00;100536.97;5010733;28;20092;-41
2022/10/21 05:17:21;;;;;;;64.88;23.52;;;;;;;11.93;100.00;100541.38;5009874;28;20411;-41
2022/10/21 05:19:47;;;;;;;66.60;22.77;;;;;;;11.95;100.00;100532.06;5009497;28;20064;-43
2022/10/21 05:22:12;;;;;;;72.30;22.42;;;;;;;12.00;100.00;100528.78;5010305;28;20054;-40
2022/10/21 05:24:37;;;;;;;62.67;22.65;;;;;;;11.99;100.00;100530.66;5009732;28;20366;-40
2022/10/21 05:27:03;;;;;;;60.13;23.85;;;;;;;12.02;100.00;100532.94;5010637;28;20046;-41
2022/10/21 05:29:28;;;;;;;61.60;22.55;;;;;;;12.02;100.00;100532.94;5009959;28;20491;-41
2022/10/21 05:31:53;;;;;;;58.60;21.73;;;;;;;12.00;100.00;100535.00;5010430;28;20049;-41
2022/10/21 05:34:19;;;;;;;62.08;22.52;;;;;;;11.99;100.00;100533.34;5010665;28;20022;-42
2022/10/21 05:36:46;;;;;;;67.03;22.27;;;;;;;11.98;100.00;100534.38;5010726;28;20037;-41
2022/10/21 05:39:11;;;;;;;61.25;22.70;;;;;;;11.96;100.00;100522.13;5010046;28;20339;-42
2022/10/21 05:41:37;;;;;;;64.32;21.92;;;;;;;11.93;100.00;100517.97;5010351;28;20022;-41
2022/10/21 05:44:03;;;;;;;62.72;22.83;;;;;;;11.91;100.00;100528.13;5013731;28;20026;-41
2022/10/21 05:46:28;;;;;;;71.10;23.02;;;;;;;11.89;100.00;100523.94;5014092;28;20030;-40
2022/10/21 05:48:53;;;;;;;66.38;22.13;;;;;;;11.92;100.00;100527.06;5013835;28;20030;-41
2022/10/21 05:51:25;;;;;;;56.10;20.88;;;;;;;11.91;100.00;100528.13;5012447;28;20384;-41
2022/10/21 05:53:50;;;;;;;69.57;22.48;;;;;;;11.91;100.00;100525.41;5013867;28;20026;-40
2022/10/21 05:56:15;;;;;;;54.25;21.70;;;;;;;11.94;100.00;100521.50;5013491;28;20037;-41
2022/10/21 05:58:41;;;;;;;66.43;22.80;;;;;;;11.96;100.00;100517.56;5013764;28;20033;-40
2022/10/21 06:01:06;;;;;;;65.65;22.48;;;;;;;11.95;100.00;100517.75;5012348;28;20032;-40
2022/10/21 06:03:32;;;;;;;68.45;21.15;;;;;;;11.95;100.00;100526.66;5013556;28;20021;-41
2022/10/21 06:05:58;;;;;;;68.60;22.75;;;;;;;11.94;100.00;100526.88;5011974;28;20071;-41
2022/10/21 06:08:24;;;;;;;62.80;21.48;;;;;;;11.91;100.00;100529.97;5013204;28;20030;-41
2022/10/21 06:11:02;;;;;;;59.85;22.02;;;;;;;11.88;100.00;100530.38;5013026;28;20177;-41
2022/10/21 06:13:27;;;;;;;;;;;;;;;11.86;100.00;100525.19;5014061;28;20038;-41
2022/10/21 06:15:52;;;;;;;62.78;21.00;;;;;;;11.86;100.00;100538.66;5013182;28;19977;-41
2022/10/21 06:18:18;;;;;;;58.00;20.38;;;;;;;11.86;100.00;100522.47;5013209;28;20037;-41
2022/10/21 06:20:43;;;;;;;68.13;21.35;;;;;;;11.86;100.00;100538.66;5012922;28;20032;-40
2022/10/21 06:23:11;;;;;;;65.88;20.90;;;;;;;11.86;100.00;100525.19;5013064;28;20491;-41
2022/10/21 06:25:36;;;;;;;59.85;20.40;;;;;;;11.94;100.00;100522.31;5013464;28;20030;-42
2022/10/21 06:28:01;;;;;;;58.83;19.33;;;;;;;11.94;100.00;100527.72;5013504;28;20033;-42
2022/10/21 06:30:27;;;;;;;51.20;19.02;;;;;;;11.94;100.00;100534.97;5013140;28;20033;-41
2022/10/21 06:32:52;;;;;;;57.78;21.10;;;;;;;11.90;100.00;100529.16;5013236;28;20033;-41
2022/10/21 06:35:17;;;;;;;56.70;17.27;;;;;;;11.90;100.00;100523.75;5013077;28;20061;-43
2022/10/21 06:37:43;;;;;;;51.47;18.65;;;;;;;11.93;100.00;100520.66;5011911;28;20064;-41
2022/10/21 06:40:09;;;;;;;43.80;17.25;;;;;;;11.94;100.00;100525.00;5011628;28;20056;-40
2022/10/21 06:42:34;;;;;;;51.47;19.13;;;;;;;11.94;100.00;100530.41;5013146;28;20143;-41
2022/10/21 06:44:59;;;;;;;56.65;19.30;;;;;;;11.95;100.00;100537.47;5013232;28;20026;-41
2022/10/21 06:47:25;;;;;;;52.78;18.02;;;;;;;11.92;100.00;100542.41;5013096;28;20182;-41
2022/10/21 06:49:50;;;;;;;52.92;19.20;;;;;;;11.91;100.00;100533.50;5012764;28;20108;-41
2022/10/21 06:52:15;;;;;;;50.15;18.98;;;;;;;11.94;100.00;100530.41;5012374;28;20075;-42
2022/10/21 06:54:41;;;;;;;56.70;19.38;;;;;;;11.95;100.00;100526.66;5012534;28;20030;-40
2022/10/21 06:57:06;;;;;;;54.13;19.27;;;;;;;11.96;100.00;100532.91;5012574;28;20064;-40
2022/10/21 06:59:31;;;;;;;55.28;19.77;;;;;;;11.99;100.00;100537.91;5012443;28;20025;-43
2022/10/21 07:01:57;;;;;;;60.92;19.50;;;;;;;11.98;100.00;100545.19;5012518;28;20033;-41
2022/10/21 07:04:22;;;;;;;61.22;19.48;;;;;;;11.99;100.00;100552.22;5012493;28;20030;-42
2022/10/21 07:06:48;;;;;;;61.80;18.77;;;;;;;12.00;100.00;100553.88;5012353;28;20029;-41
2022/10/21 07:09:14;;;;;;;51.33;18.92;;;;;;;12.00;100.00;100555.75;5012366;28;20050;-42
2022/10/21 07:11:39;;;;;;;61.50;18.95;;;;;;;12.00;100.00;100556.56;5012455;28;20033;-41
2022/10/21 07:14:04;;;;;;;58.55;19.88;;;;;;;12.03;100.00;100552.66;5012523;28;20025;-43
2022/10/21 07:16:35;;;;;;;55.15;19.02;;;;;;;12.07;100.00;100562.84;5012355;28;20354;-41
2022/10/21 07:19:00;;;;;;;55.00;19.38;;;;;;;12.08;100.00;100569.94;5012949;28;20410;-41
2022/10/21 07:21:28;;;;;;;45.60;17.33;;;;;;;12.12;100.00;100564.13;5012843;28;20034;-40
2022/10/21 07:23:55;;;;;;;49.13;18.20;;;;;;;12.18;100.00;100557.94;5012982;28;20107;-41
2022/10/21 07:26:21;;;;;;;46.47;18.57;;;;;;;12.23;100.00;100560.88;5011647;28;20144;-42
2022/10/21 07:28:47;;;;;;;57.08;22.42;;;;;;;12.26;100.00;100579.34;5012390;28;20121;-41
2022/10/21 07:31:13;;;;;;;59.08;20.63;;;;;;;12.24;100.00;100584.09;5012862;28;20144;-44
2022/10/21 07:33:39;;;;;;;48.05;17.65;;;;;;;12.20;100.00;100594.47;5012929;28;20030;-45
2022/10/21 07:36:08;;;;;;;53.10;18.17;;;;;;;12.22;100.00;100591.59;5019165;28;20040;-45
2022/10/21 07:38:33;;;;;;;50.53;18.08;;;;;;;12.23;100.00;100577.88;5017345;28;20124;-46
2022/10/21 07:40:58;;;;;;;48.78;18.48;;;;;;;12.27;100.00;100589.13;5012381;28;20529;-45
2022/10/21 07:43:24;;;;;;;45.85;18.20;;;;;;;12.28;100.00;100580.81;5011656;28;20029;-44
2022/10/21 07:45:49;;;;;;;53.72;20.20;;;;;;;12.41;100.00;100582.75;5011983;28;20036;-45
2022/10/21 07:48:15;;;;;;;49.30;17.38;;;;;;;12.41;100.00;100585.44;5012637;28;20116;-45
2022/10/21 07:50:40;;;;;;;46.97;18.10;;;;;;;12.43;100.00;100583.38;5012774;28;20111;-46
2022/10/21 07:53:06;;;;;;;52.58;18.05;;;;;;;12.44;100.00;100593.16;5012241;28;20053;-45
2022/10/21 07:55:31;;;;;;;52.97;17.40;;;;;;;12.52;100.00;100592.97;5011648;28;20030;-45
2022/10/21 07:57:57;;;;;;;50.53;18.52;;;;;;;12.56;100.00;100592.56;5010485;28;20044;-45
2022/10/21 08:00:22;;;;;;;55.33;18.83;;;;;;;12.57;100.00;100597.78;5009073;28;20030;-44
2022/10/21 08:02:52;;;;;;;59.08;17.90;;;;;;;12.62;100.00;100594.47;5009174;28;20106;-45
2022/10/21 08:05:17;;;;;;;48.78;17.67;;;;;;;12.63;100.00;100588.03;5010447;28;20116;-45
2022/10/21 08:07:43;;;;;;;39.65;16.90;;;;;;;12.68;100.00;100599.06;5009955;28;20533;-45
2022/10/21 08:10:08;;;;;;;49.05;17.30;;;;;;;12.70;100.00;100599.69;5009090;28;20139;-45
2022/10/21 08:12:34;;;;;;;48.47;17.85;;;;;;;12.71;100.00;100591.38;5010290;28;20250;-44
2022/10/21 08:14:59;;;;;;;48.38;17.80;;;;;;;12.72;100.00;100578.72;5012263;28;20030;-45
2022/10/21 08:17:24;;;;;;;42.63;17.65;;;;;;;12.79;100.00;100582.28;5010583;28;20030;-45
2022/10/21 08:19:50;;;;;;;49.35;19.38;;;;;;;12.78;100.00;100583.31;5010106;28;20073;-45
2022/10/21 08:22:15;;;;;;;54.33;18.10;;;;;;;12.82;100.00;100576.50;5010869;28;20361;-46
2022/10/21 08:24:40;;;;;;;38.97;17.30;;;;;;;12.98;100.00;100574.44;5011099;28;20480;-46
2022/10/21 08:27:06;;;;;;;62.63;17.77;;;;;;;13.00;100.00;100584.00;5012021;28;20453;-45
2022/10/21 08:29:31;;;;;;;49.25;18.42;;;;;;;13.00;100.00;100594.78;5010214;28;20443;-45
2022/10/21 08:31:56;;;;;;;45.85;17.80;;;;;;;13.06;100.00;100598.53;5011530;28;20145;-45
2022/10/21 08:34:22;;;;;;;41.67;17.60;;;;;;;13.08;100.00;100604.59;5010849;28;20030;-46
2022/10/21 08:36:47;;;;;;;37.75;15.90;;;;;;;13.11;100.00;100599.63;5010467;28;20033;-45
2022/10/21 08:39:12;;;;;;;50.67;17.85;;;;;;;13.20;100.00;100605.66;5008904;28;20669;-45
2022/10/21 08:41:58;;;;;;;43.25;16.92;;;;;;;13.30;100.00;100598.03;5006401;28;20025;-45
2022/10/21 08:44:30;;;;;;;43.90;17.23;;;;;;;13.43;100.00;100605.31;5012781;28;20026;-45
2022/10/21 08:47:02;;;;;;;41.92;15.63;;;;;;;13.45;100.00;100594.28;5009483;28;20037;-46
2022/10/21 08:49:38;;;;;;;37.28;15.38;;;;;;;13.51;100.00;100590.78;5022982;28;20075;-44
2022/10/21 08:52:08;;;;;;;34.25;14.25;;;;;;;13.59;100.00;100587.84;5014003;28;20045;-44
2022/10/21 08:54:54;;;;;;;42.10;16.58;;;;;;;13.64;100.00;100585.38;5011597;28;20117;-45
2022/10/21 08:57:19;;;;;;;33.22;14.40;;;;;;;13.61;100.00;100596.56;5028481;28;20116;-45
2022/10/21 08:59:45;;;;;;;45.22;14.48;;;;;;;13.65;100.00;100597.84;5021868;28;20038;-45
2022/10/21 09:02:10;;;;;;;33.63;12.68;;;;;;;13.67;100.00;100595.75;5009157;28;20444;-42
2022/10/21 09:05:18;;;;;;;35.60;12.90;;;;;;;13.66;100.00;100596.78;5009233;28;20502;-41
2022/10/21 09:07:59;;;;;;;44.97;12.52;;;;;;;13.65;100.00;100595.13;4986187;28;20104;-41
2022/10/21 09:10:24;;;;;;;34.50;12.38;;;;;;;13.74;100.00;100596.56;5001321;28;111347;-43
2022/10/21 09:12:56;;;;;;;35.28;12.32;;;;;;;13.78;100.00;100597.00;5008550;28;20811;-43
2022/10/21 09:15:26;;;;;;;32.60;11.05;;;;;;;13.79;100.00;100588.66;5008639;28;20030;-41
2022/10/21 09:18:34;;;;;;;36.70;11.45;;;;;;;13.91;100.00;100602.41;5011802;28;20029;-43
2022/10/21 09:20:59;;;;;;;;;;;;;;;14.00;100.00;100606.53;5006860;28;20132;-42
2022/10/21 09:23:57;;;;;;;26.23;10.57;;;;;;;14.08;100.00;100607.38;5014196;28;20059;-40
2022/10/21 09:26:25;;;;;;;32.13;10.73;;;;;;;14.21;100.00;100607.34;5014599;28;20033;-41
2022/10/21 09:28:51;;;;;;;26.30;9.60;;;;;;;14.35;100.00;100605.44;5014453;28;20481;-41
2022/10/21 09:31:19;;;;;;;31.00;9.57;;;;;;;14.40;100.00;100600.19;5012884;28;20033;-42
2022/10/21 09:33:45;;;;;;;;;;;;;;;14.49;100.00;100597.06;5008432;28;20053;-42
2022/10/21 09:36:15;;;;;;;36.45;10.40;;;;;;;14.60;100.00;100592.88;5014500;28;20307;-42
2022/10/21 09:39:04;;;;;;;34.60;9.85;;;;;;;14.67;100.00;100580.16;5012900;28;20034;-41
2022/10/21 09:41:38;;;;;;;31.92;9.18;;;;;;;14.74;100.00;100595.53;5014614;28;20032;-42
2022/10/21 09:44:03;;;;;;;28.65;8.70;;;;;;;14.82;100.00;100576.31;4995677;28;20481;-42
2022/10/21 09:46:29;;;;;;;26.08;9.82;;;;;;;14.96;100.00;100574.38;5019515;28;20076;-41
2022/10/21 09:48:55;;;;;;;22.92;8.73;;;;;;;15.09;100.00;100582.44;5014264;28;20038;-43
2022/10/21 09:51:30;;;;;;;34.80;9.68;;;;;;;15.29;100.00;100585.81;5012748;28;20747;-42
2022/10/21 09:53:58;;;;;;;24.92;9.27;;;;;;;15.39;100.00;100576.38;5010733;28;20033;-41
2022/10/21 09:56:44;;;;;;;20.67;7.72;;;;;;;15.44;100.00;100574.66;5021711;28;20064;-41
2022/10/21 09:59:12;;;;;;;24.08;8.05;;;;;;;15.67;100.00;100584.09;5009495;28;20076;-41
2022/10/21 10:01:39;;;;;;;24.58;7.43;;;;;;;15.70;100.00;100581.78;5013023;28;20029;-41
2022/10/21 10:04:21;;;;;;;20.98;7.30;;;;;;;15.75;100.00;100575.72;5012892;28;20030;-41
2022/10/21 10:06:47;;;;;;;19.23;6.40;;;;;;;15.82;100.00;100592.75;5007094;28;20037;-42
2022/10/21 10:09:15;;;;;;;32.35;6.95;;;;;;;15.80;100.00;100584.00;5012613;28;20041;-41
2022/10/21 10:11:49;;;;;;;20.98;6.55;;;;;;;15.90;100.00;100584.31;5012310;28;20033;-41
2022/10/21 10:14:32;;;;;;;27.63;7.10;;;;;;;15.95;100.00;100578.22;5011946;28;20549;-41
2022/10/21 10:17:27;;;;;;;18.00;7.40;;;;;;;16.09;100.00;100570.75;5011245;28;20041;-41
2022/10/21 10:20:02;;;;;;;19.25;6.70;;;;;;;16.14;100.00;100579.91;5012604;28;20030;-42
2022/10/21 10:22:31;;;;;;;23.65;6.55;;;;;;;16.28;100.00;100564.31;5012076;28;20056;-42
2022/10/21 10:25:17;;;;;;;25.15;5.95;;;;;;;16.68;100.00;100570.06;5003465;28;20044;-42
2022/10/21 10:28:01;;;;;;;15.90;5.57;;;;;;;16.85;100.00;100567.59;5002222;28;20373;-42
2022/10/21 10:30:36;;;;;;;16.15;6.20;;;;;;;16.99;100.00;100560.06;5009757;28;20493;-41
2022/10/21 10:33:08;;;;;;;21.42;6.40;;;;;;;16.87;100.00;100556.47;5012995;28;20026;-42
2022/10/21 10:35:35;;;;;;;23.45;6.72;;;;;;;16.80;100.00;100567.44;5011367;28;20033;-42
2022/10/21 10:38:01;;;;;;;25.98;5.60;;;;;;;16.86;100.00;100555.66;5011781;28;20211;-41
2022/10/21 10:40:44;;;;;;;20.63;5.72;;;;;;;16.94;100.00;100556.41;5010815;28;20036;-42
2022/10/21 10:43:28;;;;;;;18.00;5.20;;;;;;;16.96;100.00;100552.38;4995978;28;20025;-40
2022/10/21 10:45:56;;;;;;;15.60;5.35;;;;;;;17.15;100.00;100553.16;4995151;28;20048;-42
2022/10/21 10:48:31;;;;;;;18.55;5.88;;;;;;;17.17;100.00;100566.50;5011931;28;20133;-41
2022/10/21 10:50:57;;;;;;;17.70;5.70;;;;;;;17.01;100.00;100573.41;5009770;28;20460;-43
2022/10/21 10:53:38;;;;;;;11.20;5.32;;;;;;;16.96;100.00;100570.59;5010800;28;20393;-41
2022/10/21 10:56:18;;;;;;;18.02;6.00;;;;;;;16.93;100.00;100561.00;5012553;28;20106;-42
2022/10/21 10:59:03;;;;;;;17.92;6.20;;;;;;;17.03;100.00;100560.44;5012477;28;20373;-42
2022/10/21 11:01:33;;;;;;;13.27;5.70;;;;;;;16.97;100.00;100564.09;5011130;28;20038;-41
2022/10/21 11:04:14;;;;;;;20.83;5.63;;;;;;;16.96;100.00;100570.59;5011003;28;20033;-43
2022/10/21 11:06:44;;;;;;;13.60;5.53;;;;;;;17.04;100.00;100572.97;5010629;28;20022;-41
2022/10/21 11:09:09;;;;;;;16.35;4.80;;;;;;;17.11;100.00;100573.69;5011236;28;20133;-42
2022/10/21 11:11:38;;;;;;;12.82;4.65;;;;;;;17.22;100.00;100570.19;5018955;28;20133;-41